Time;durP1;ratioP1;P1;durP2;ratioP2;P2;SDS_P1;SDS_P2;PMS_P1;PMS_P2;Temp;Humidity;BMP_temperature;BMP_pressure;BME280_temperature;BME280_humidity;BME280_pressure;Samples;Min_cycle;Max_cycle;Signal;HPM_P1;HPM_P2
2022/12/31 00:00:37;;;;;;;14.25;7.57;;;12.20;79.00;;;;;;5016062;28;20204;-75
2022/12/31 00:03:08;;;;;;;11.55;7.60;;;12.20;79.10;;;;;;5015927;28;20034;-75
2022/12/31 00:05:35;;;;;;;12.65;7.40;;;12.20;79.10;;;;;;5015003;28;20167;-75
2022/12/31 00:08:01;;;;;;;11.43;7.72;;;12.20;78.80;;;;;;5014980;28;20050;-75
2022/12/31 00:10:28;;;;;;;10.38;6.65;;;12.20;78.60;;;;;;5011957;28;20390;-75
2022/12/31 00:12:55;;;;;;;10.68;7.18;;;12.20;78.50;;;;;;5003076;28;20171;-75
2022/12/31 00:15:21;;;;;;;10.60;6.85;;;12.20;78.50;;;;;;5014304;28;20132;-75
2022/12/31 00:17:47;;;;;;;10.50;6.88;;;12.20;78.50;;;;;;5015099;28;20045;-73
2022/12/31 00:20:13;;;;;;;11.05;6.57;;;12.20;78.40;;;;;;5014364;28;20040;-74
2022/12/31 00:22:39;;;;;;;10.77;6.85;;;12.20;78.40;;;;;;5015102;28;20120;-75
2022/12/31 00:25:05;;;;;;;11.10;6.78;;;12.20;78.50;;;;;;5015537;28;20436;-73
2022/12/31 00:27:32;;;;;;;11.38;7.47;;;12.20;78.50;;;;;;5004029;28;20494;-74
2022/12/31 00:29:57;;;;;;;10.13;7.38;;;12.20;78.50;;;;;;5013986;28;20030;-75
2022/12/31 00:32:25;;;;;;;10.60;6.97;;;12.20;78.40;;;;;;5001287;28;20029;-74
2022/12/31 00:34:50;;;;;;;10.13;6.93;;;12.20;78.60;;;;;;5014064;28;20036;-74
2022/12/31 00:37:16;;;;;;;11.10;6.75;;;12.20;78.40;;;;;;5015638;28;20026;-74
2022/12/31 00:39:42;;;;;;;11.02;6.90;;;12.20;78.50;;;;;;5015736;28;20052;-75
2022/12/31 00:42:08;;;;;;;8.88;6.20;;;12.20;78.60;;;;;;5014126;28;20164;-74
2022/12/31 00:44:34;;;;;;;9.82;6.78;;;12.20;78.60;;;;;;4996785;28;20424;-75
2022/12/31 00:47:00;;;;;;;11.48;6.97;;;12.20;78.60;;;;;;5015435;28;20148;-75
2022/12/31 00:49:26;;;;;;;7.88;6.22;;;12.20;78.40;;;;;;5014882;28;20044;-71
2022/12/31 00:51:52;;;;;;;9.63;6.35;;;12.20;78.30;;;;;;5016185;28;20045;-72
2022/12/31 00:54:18;;;;;;;9.20;6.30;;;12.20;78.30;;;;;;5013863;28;20034;-72
2022/12/31 00:56:44;;;;;;;9.25;5.97;;;12.20;78.10;;;;;;5014283;28;20128;-73
2022/12/31 00:59:10;;;;;;;10.65;7.18;;;12.20;78.10;;;;;;5015008;28;20049;-73
2022/12/31 01:01:38;;;;;;;9.05;6.25;;;12.20;78.10;;;;;;5014960;28;20037;-73
2022/12/31 01:04:07;;;;;;;8.63;6.53;;;12.20;78.10;;;;;;5015573;28;20030;-73
2022/12/31 01:06:34;;;;;;;9.20;6.43;;;12.20;78.20;;;;;;5014776;28;20389;-75
2022/12/31 01:09:00;;;;;;;10.98;6.43;;;12.20;78.20;;;;;;5014870;28;20120;-75
2022/12/31 01:11:29;;;;;;;8.90;6.20;;;12.20;78.10;;;;;;5012321;28;20037;-74
2022/12/31 01:13:59;;;;;;;9.95;6.20;;;12.20;78.30;;;;;;5046600;28;20030;-75
2022/12/31 01:16:29;;;;;;;8.82;6.35;;;12.20;78.20;;;;;;5013557;28;20400;-74
2022/12/31 01:19:01;;;;;;;9.55;6.25;;;12.20;78.10;;;;;;5047092;28;20451;-76
2022/12/31 01:21:28;;;;;;;10.02;6.32;;;12.20;77.90;;;;;;5014831;28;20042;-74
2022/12/31 01:23:54;;;;;;;9.73;6.32;;;12.20;77.80;;;;;;5014203;28;20057;-74
2022/12/31 01:26:20;;;;;;;9.80;6.35;;;12.20;77.80;;;;;;5013251;28;20137;-74
2022/12/31 01:28:46;;;;;;;8.45;5.90;;;12.20;77.70;;;;;;5015193;28;20083;-74
2022/12/31 01:31:16;;;;;;;8.68;5.78;;;12.20;77.60;;;;;;5012717;28;20390;-74
2022/12/31 01:33:43;;;;;;;8.40;5.60;;;12.10;77.50;;;;;;5014297;28;20029;-73
2022/12/31 01:36:15;;;;;;;9.05;5.50;;;12.20;78.10;;;;;;4996034;28;20484;-75
2022/12/31 01:38:41;;;;;;;7.93;5.72;;;12.20;77.40;;;;;;5015126;28;20058;-75
2022/12/31 01:41:12;;;;;;;8.23;6.05;;;12.10;77.30;;;;;;5013788;28;20038;-72
2022/12/31 01:43:46;;;;;;;8.00;5.78;;;12.10;77.30;;;;;;5015050;28;20030;-74
2022/12/31 01:46:35;;;;;;;9.50;6.28;;;12.10;77.30;;;;;;5014932;28;20108;-75
2022/12/31 01:49:29;;;;;;;8.15;6.00;;;12.10;77.20;;;;;;5032973;28;20416;-76
2022/12/31 01:52:01;;;;;;;9.15;6.10;;;12.10;77.30;;;;;;5000680;28;20033;-76
2022/12/31 01:54:31;;;;;;;8.68;6.55;;;12.10;77.20;;;;;;5033963;28;20047;-75
2022/12/31 01:56:57;;;;;;;8.23;5.53;;;12.10;77.00;;;;;;5021494;28;20097;-75
2022/12/31 01:59:27;;;;;;;9.65;6.07;;;12.10;76.90;;;;;;5033012;28;20034;-75
2022/12/31 02:01:54;;;;;;;7.90;5.78;;;12.10;76.90;;;;;;5019320;28;20123;-75
2022/12/31 02:04:23;;;;;;;9.10;6.20;;;12.10;76.70;;;;;;5016980;28;20044;-76
2022/12/31 02:07:02;;;;;;;9.95;6.28;;;12.10;76.70;;;;;;5017791;28;20522;-75
2022/12/31 02:09:28;;;;;;;8.10;5.65;;;12.10;76.70;;;;;;5018088;28;20030;-74
2022/12/31 02:11:54;;;;;;;8.68;6.13;;;12.10;76.60;;;;;;5005604;28;20416;-76
2022/12/31 02:14:24;;;;;;;9.27;6.07;;;12.10;76.60;;;;;;5016532;28;20034;-76
2022/12/31 02:16:53;;;;;;;10.52;6.90;;;12.10;76.60;;;;;;5013836;28;20083;-76
2022/12/31 02:19:59;;;;;;;10.77;6.53;;;12.10;76.70;;;;;;5018197;28;20057;-77
2022/12/31 02:22:34;;;;;;;10.43;7.28;;;12.10;76.70;;;;;;5018008;28;20141;-77
2022/12/31 02:25:11;;;;;;;9.70;6.97;;;12.10;76.50;;;;;;5017265;28;20284;-76
2022/12/31 02:28:02;;;;;;;9.48;6.68;;;12.10;76.50;;;;;;5038095;28;20802;-77
2022/12/31 02:30:31;;;;;;;10.75;7.38;;;12.10;76.50;;;;;;5036653;28;20040;-74
2022/12/31 02:33:11;;;;;;;11.32;6.70;;;12.10;76.50;;;;;;5049866;28;20033;-76
2022/12/31 02:35:57;;;;;;;10.35;7.18;;;12.10;76.50;;;;;;5036718;28;20040;-73
2022/12/31 02:38:32;;;;;;;10.32;6.75;;;12.10;76.40;;;;;;5036780;28;20044;-73
2022/12/31 02:40:59;;;;;;;10.50;7.13;;;12.10;76.40;;;;;;5037447;28;20416;-73
2022/12/31 02:43:25;;;;;;;10.52;6.70;;;12.10;76.30;;;;;;5037466;28;20385;-74
2022/12/31 02:46:00;;;;;;;10.52;7.00;;;12.10;76.30;;;;;;5036812;28;20036;-73
2022/12/31 02:48:48;;;;;;;11.93;7.47;;;12.10;76.20;;;;;;5025787;28;20650;-73
2022/12/31 02:51:43;;;;;;;11.40;7.35;;;12.10;76.20;;;;;;5037623;28;20025;-73
2022/12/31 02:54:30;;;;;;;10.50;7.23;;;12.10;76.10;;;;;;5036407;28;20115;-74
2022/12/31 02:57:09;;;;;;;14.50;7.90;;;12.10;76.10;;;;;;5037052;28;20496;-75
2022/12/31 03:02:28;;;;;;;9.98;7.10;;;12.10;76.00;;;;;;5036060;28;20403;-76
2022/12/31 03:04:56;;;;;;;11.38;7.68;;;12.00;76.00;;;;;;5035097;28;20029;-75
2022/12/31 03:07:27;;;;;;;11.25;7.72;;;12.10;76.00;;;;;;5036295;28;20167;-75
2022/12/31 03:09:54;;;;;;;12.32;7.05;;;12.10;76.00;;;;;;5052185;28;20385;-75
2022/12/31 03:15:18;;;;;;;10.75;7.38;;;12.00;75.90;;;;;;5035877;28;20164;-75
2022/12/31 03:17:52;;;;;;;11.95;7.25;;;12.10;76.00;;;;;;5068301;28;20063;-74
2022/12/31 03:23:08;;;;;;;10.63;7.07;;;12.10;75.90;;;;;;5035246;28;20045;-75
2022/12/31 03:25:35;;;;;;;9.57;7.13;;;12.00;75.80;;;;;;5037077;28;20527;-76
2022/12/31 03:28:09;;;;;;;8.80;6.65;;;12.00;75.80;;;;;;5036739;28;20404;-76
2022/12/31 03:30:38;;;;;;;10.63;7.47;;;12.00;75.70;;;;;;5029128;28;20095;-75
2022/12/31 03:33:05;;;;;;;11.55;7.15;;;12.00;75.80;;;;;;5036210;28;20037;-73
2022/12/31 03:35:33;;;;;;;11.25;7.13;;;12.00;75.70;;;;;;5035807;28;20037;-73
2022/12/31 03:37:59;;;;;;;9.65;7.13;;;12.00;75.70;;;;;;5036149;28;20050;-75
2022/12/31 03:40:27;;;;;;;9.80;6.72;;;12.00;75.70;;;;;;5034866;28;20500;-73
2022/12/31 03:42:53;;;;;;;11.05;6.72;;;12.00;75.80;;;;;;5037463;28;20044;-75
2022/12/31 03:45:19;;;;;;;10.68;6.72;;;12.00;75.80;;;;;;5035847;28;20520;-76
2022/12/31 03:47:46;;;;;;;10.65;7.13;;;12.00;75.80;;;;;;5045747;28;20037;-72
2022/12/31 03:50:14;;;;;;;9.73;6.65;;;12.00;75.70;;;;;;5050998;28;20504;-75
2022/12/31 03:52:40;;;;;;;9.77;7.05;;;12.00;75.70;;;;;;5031063;28;20038;-75
2022/12/31 03:55:07;;;;;;;9.65;6.72;;;12.00;75.70;;;;;;5014045;28;20558;-74
2022/12/31 03:57:33;;;;;;;8.35;6.65;;;12.00;75.60;;;;;;5015834;28;20408;-75
2022/12/31 03:59:59;;;;;;;11.18;6.63;;;12.00;75.50;;;;;;5015468;28;20038;-77
2022/12/31 04:02:25;;;;;;;8.88;6.60;;;12.00;75.50;;;;;;5013920;28;20147;-75
2022/12/31 04:04:51;;;;;;;9.38;6.45;;;12.00;75.40;;;;;;5012903;28;20037;-76
2022/12/31 04:07:17;;;;;;;8.63;6.30;;;12.00;75.40;;;;;;5048614;28;20034;-75
2022/12/31 04:09:43;;;;;;;9.50;6.10;;;12.00;75.40;;;;;;5035085;28;20119;-74
2022/12/31 04:12:09;;;;;;;8.57;6.18;;;12.00;75.40;;;;;;5005976;28;20602;-74
2022/12/31 04:14:35;;;;;;;8.80;6.22;;;12.00;75.40;;;;;;5025769;28;20124;-74
2022/12/31 04:17:01;;;;;;;7.72;5.82;;;12.00;75.30;;;;;;5032061;28;20037;-75
2022/12/31 04:19:27;;;;;;;8.70;6.38;;;12.00;75.30;;;;;;5035328;28;20028;-74
2022/12/31 04:21:53;;;;;;;7.35;5.93;;;12.00;75.30;;;;;;5036588;28;20030;-76
2022/12/31 04:24:19;;;;;;;8.52;6.05;;;12.00;75.30;;;;;;5034798;28;20097;-75
2022/12/31 04:26:45;;;;;;;8.50;5.35;;;12.00;75.30;;;;;;5040850;28;20072;-73
2022/12/31 04:29:11;;;;;;;6.53;5.22;;;12.00;75.90;;;;;;5038685;28;20131;-76
2022/12/31 04:31:37;;;;;;;8.32;6.00;;;12.00;75.20;;;;;;5035787;28;20041;-75
2022/12/31 04:34:02;;;;;;;6.97;5.63;;;12.00;75.20;;;;;;5036090;28;20942;-74
2022/12/31 04:36:29;;;;;;;6.95;5.03;;;12.00;75.20;;;;;;5032698;28;20094;-75
2022/12/31 04:38:55;;;;;;;7.20;5.97;;;12.00;75.20;;;;;;5034495;28;20037;-76
2022/12/31 04:41:21;;;;;;;6.65;5.15;;;12.00;75.20;;;;;;5035241;28;20029;-75
2022/12/31 04:43:53;;;;;;;6.65;5.43;;;12.00;75.20;;;;;;5035557;28;20439;-74
2022/12/31 04:46:25;;;;;;;5.82;4.63;;;12.00;75.20;;;;;;5036765;28;20029;-74
2022/12/31 04:48:51;;;;;;;7.00;5.25;;;12.00;75.20;;;;;;5040388;28;20510;-75
2022/12/31 04:51:18;;;;;;;8.75;5.03;;;12.00;75.30;;;;;;5035107;28;20471;-74
2022/12/31 04:53:44;;;;;;;6.43;4.85;;;12.00;75.30;;;;;;5036053;28;20033;-73
2022/12/31 04:56:11;;;;;;;6.57;5.15;;;12.00;75.30;;;;;;5033998;28;20415;-73
2022/12/31 04:58:37;;;;;;;6.03;4.82;;;12.00;75.30;;;;;;5037046;28;20045;-73
2022/12/31 05:01:04;;;;;;;7.97;5.07;;;12.00;75.30;;;;;;5053143;28;20086;-74
2022/12/31 05:03:30;;;;;;;5.13;4.60;;;12.00;75.20;;;;;;5036509;28;20075;-74
2022/12/31 05:06:05;;;;;;;7.03;4.80;;;12.00;75.20;;;;;;5034905;28;20098;-73
2022/12/31 05:08:32;;;;;;;7.93;5.00;;;12.00;75.20;;;;;;5035018;28;20530;-74
2022/12/31 05:10:58;;;;;;;5.70;4.63;;;12.00;75.10;;;;;;5034978;28;20068;-75
2022/12/31 05:13:25;;;;;;;7.40;5.18;;;12.00;75.10;;;;;;5033655;28;20045;-76
2022/12/31 05:15:51;;;;;;;6.88;5.00;;;12.00;75.10;;;;;;5037329;28;20044;-74
2022/12/31 05:18:17;;;;;;;6.53;5.22;;;11.90;75.00;;;;;;5035741;28;20538;-75
2022/12/31 05:20:43;;;;;;;9.00;5.00;;;12.00;75.10;;;;;;5035096;28;20037;-72
2022/12/31 05:23:10;;;;;;;6.80;4.82;;;12.00;75.10;;;;;;5038381;28;20084;-74
2022/12/31 05:25:36;;;;;;;5.55;4.80;;;12.00;75.10;;;;;;5037894;28;20041;-74
2022/12/31 05:28:03;;;;;;;5.40;4.43;;;11.90;75.10;;;;;;5039666;28;20042;-73
2022/12/31 05:30:29;;;;;;;6.00;5.18;;;12.00;75.20;;;;;;5039398;28;20601;-74
2022/12/31 05:32:55;;;;;;;5.43;4.45;;;12.00;75.20;;;;;;5037113;28;20076;-75
2022/12/31 05:35:21;;;;;;;7.70;5.28;;;12.00;75.80;;;;;;5035159;28;20060;-74
2022/12/31 05:37:47;;;;;;;5.53;4.15;;;12.00;75.20;;;;;;5038628;28;20574;-73
2022/12/31 05:40:13;;;;;;;5.25;3.90;;;12.00;75.20;;;;;;5050222;28;20024;-74
2022/12/31 05:42:39;;;;;;;4.47;3.95;;;11.90;75.00;;;;;;5042776;28;20415;-74
2022/12/31 05:45:05;;;;;;;4.97;4.00;;;12.00;75.10;;;;;;5038881;28;20416;-72
2022/12/31 05:47:31;;;;;;;5.88;4.57;;;11.90;75.00;;;;;;5030702;28;20042;-73
2022/12/31 05:49:57;;;;;;;5.13;4.15;;;11.90;75.10;;;;;;5025119;28;20547;-74
2022/12/31 05:52:23;;;;;;;6.35;4.32;;;11.90;75.10;;;;;;5037845;28;20041;-76
2022/12/31 05:54:51;;;;;;;4.28;3.50;;;12.00;75.20;;;;;;5039188;28;20025;-75
2022/12/31 05:57:17;;;;;;;4.15;3.75;;;12.00;75.30;;;;;;5038076;28;20040;-76
2022/12/31 05:59:43;;;;;;;5.78;3.90;;;11.90;75.40;;;;;;5037235;28;20034;-74
2022/12/31 06:02:08;;;;;;;4.40;3.45;;;12.00;75.50;;;;;;5036223;28;20130;-75
2022/12/31 06:04:34;;;;;;;3.90;3.50;;;11.90;75.40;;;;;;5037038;28;20543;-75
2022/12/31 06:07:00;;;;;;;3.88;3.47;;;12.00;75.40;;;;;;5038136;28;20032;-75
2022/12/31 06:09:26;;;;;;;5.68;3.47;;;12.00;75.30;;;;;;5037824;28;20106;-76
2022/12/31 06:11:52;;;;;;;3.42;3.13;;;11.90;75.70;;;;;;5039195;28;20094;-75
2022/12/31 06:14:18;;;;;;;7.90;3.97;;;12.00;75.00;;;;;;5049514;28;20036;-75
2022/12/31 06:16:44;;;;;;;3.28;2.83;;;12.00;75.00;;;;;;5036582;28;20048;-75
2022/12/31 06:19:10;;;;;;;3.42;3.13;;;11.90;74.90;;;;;;5038843;28;20191;-75
2022/12/31 06:21:36;;;;;;;5.90;3.17;;;12.00;74.80;;;;;;5036795;28;20038;-77
2022/12/31 06:24:02;;;;;;;3.80;3.40;;;11.90;74.70;;;;;;5037597;28;20112;-76
2022/12/31 06:26:28;;;;;;;3.17;2.88;;;12.00;74.70;;;;;;5037267;28;20040;-77
2022/12/31 06:28:54;;;;;;;4.47;3.60;;;11.90;74.60;;;;;;5037488;28;20196;-76
2022/12/31 06:31:20;;;;;;;4.35;3.22;;;11.90;74.60;;;;;;5035677;28;20348;-78
2022/12/31 06:33:45;;;;;;;3.75;3.20;;;11.90;74.70;;;;;;5020982;28;20376;-82
2022/12/31 06:36:13;;;;;;;4.35;3.22;;;11.90;74.70;;;;;;5036821;28;20040;-79
2022/12/31 06:38:41;;;;;;;4.07;3.22;;;12.00;74.90;;;;;;5035991;28;20033;-75
2022/12/31 06:41:09;;;;;;;3.40;3.10;;;11.90;74.70;;;;;;5037312;28;20033;-74
2022/12/31 06:43:36;;;;;;;5.95;3.05;;;11.90;74.70;;;;;;5037829;28;20165;-74
2022/12/31 06:46:04;;;;;;;3.97;3.10;;;11.90;74.70;;;;;;5058931;28;20037;-74
2022/12/31 06:48:31;;;;;;;4.95;3.42;;;11.90;75.00;;;;;;5040672;28;20033;-72
2022/12/31 06:51:02;;;;;;;5.93;3.80;;;11.90;75.20;;;;;;5035994;28;20029;-70
2022/12/31 06:53:28;;;;;;;4.95;3.28;;;11.90;75.40;;;;;;5037150;28;20401;-72
2022/12/31 06:55:54;;;;;;;5.88;3.58;;;11.90;75.40;;;;;;5037133;28;20179;-71
2022/12/31 06:58:20;;;;;;;4.22;3.28;;;11.90;75.70;;;;;;5039763;28;20035;-71
2022/12/31 07:00:58;;;;;;;5.43;3.38;;;11.90;75.90;;;;;;5041512;28;20017;-72
2022/12/31 07:03:45;;;;;;;6.35;3.58;;;12.00;76.10;;;;;;5037313;28;20202;-74
2022/12/31 07:06:15;;;;;;;4.18;3.30;;;12.00;76.10;;;;;;5017170;28;20033;-74
2022/12/31 07:09:15;;;;;;;4.03;2.95;;;12.00;76.20;;;;;;5069167;28;20029;-74
2022/12/31 07:11:58;;;;;;;8.85;3.38;;;12.00;76.30;;;;;;5055752;28;20040;-76
2022/12/31 07:14:32;;;;;;;6.60;3.60;;;12.00;76.40;;;;;;5035587;28;20074;-75
2022/12/31 07:17:19;;;;;;;7.07;3.15;;;12.00;76.60;;;;;;5036522;28;20044;-78
2022/12/31 07:19:51;;;;;;;5.03;3.10;;;12.00;76.70;;;;;;5036100;28;20389;-75
2022/12/31 07:22:17;;;;;;;9.45;3.40;;;12.00;77.10;;;;;;5035686;28;20395;-77
2022/12/31 07:24:44;;;;;;;5.68;3.58;;;12.00;77.40;;;;;;5037073;28;20048;-76
2022/12/31 07:27:10;;;;;;;8.18;3.83;;;12.00;77.80;;;;;;5036153;28;20037;-76
2022/12/31 07:29:45;;;;;;;5.10;3.15;;;12.00;78.00;;;;;;5039341;28;20096;-75
2022/12/31 07:32:45;;;;;;;6.40;3.67;;;12.00;77.90;;;;;;5034450;28;20044;-76
2022/12/31 07:35:47;;;;;;;9.15;3.85;;;12.00;78.20;;;;;;5034982;28;20779;-76
2022/12/31 07:38:52;;;;;;;8.15;4.32;;;12.00;78.40;;;;;;5035151;28;20052;-76
2022/12/31 07:41:21;;;;;;;8.15;3.92;;;12.00;78.70;;;;;;5034877;28;20033;-78
2022/12/31 07:44:02;;;;;;;7.28;3.25;;;12.00;78.80;;;;;;5066478;28;20037;-76
2022/12/31 07:46:51;;;;;;;5.93;3.60;;;12.00;78.70;;;;;;5037271;28;20036;-78
2022/12/31 07:49:18;;;;;;;7.15;3.30;;;12.00;78.80;;;;;;5017131;28;20064;-77
2022/12/31 07:51:44;;;;;;;5.82;3.38;;;12.10;79.40;;;;;;5034480;28;20106;-75
2022/12/31 07:54:10;;;;;;;5.45;3.45;;;12.00;78.70;;;;;;5037807;28;20043;-76
2022/12/31 07:56:36;;;;;;;6.45;3.10;;;12.10;78.80;;;;;;5036393;28;20034;-76
2022/12/31 07:59:39;;;;;;;5.00;2.75;;;12.10;78.70;;;;;;5036611;28;20069;-74
2022/12/31 08:02:43;;;;;;;6.68;3.00;;;12.10;78.60;;;;;;5035625;28;20528;-77
2022/12/31 08:05:47;;;;;;;9.20;2.88;;;12.10;78.60;;;;;;5035918;28;20029;-80
2022/12/31 08:08:48;;;;;;;5.10;2.83;;;12.10;78.70;;;;;;4971888;28;20040;-79
2022/12/31 08:11:33;;;;;;;6.10;3.00;;;12.10;78.70;;;;;;4969275;28;20063;-88
2022/12/31 08:14:00;;;;;;;3.83;2.42;;;12.10;78.60;;;;;;4950473;29;20040;-81
2022/12/31 08:16:27;;;;;;;8.18;2.70;;;12.10;78.60;;;;;;4961396;28;20138;-82
2022/12/31 08:18:53;;;;;;;4.15;2.55;;;12.10;78.80;;;;;;4956541;28;20043;-82
2022/12/31 08:21:38;;;;;;;8.27;2.50;;;12.10;78.80;;;;;;4953008;28;20039;-81
2022/12/31 08:24:13;;;;;;;7.50;3.13;;;12.10;78.70;;;;;;4953026;28;20071;-78
2022/12/31 08:27:15;;;;;;;5.93;2.75;;;12.10;78.60;;;;;;4935848;29;20046;-79
2022/12/31 08:30:11;;;;;;;3.83;2.35;;;12.20;79.20;;;;;;4949505;28;20468;-79
2022/12/31 08:32:51;;;;;;;5.65;2.55;;;12.20;78.40;;;;;;4935713;29;20035;-82
2022/12/31 08:35:41;;;;;;;5.78;3.35;;;12.20;78.30;;;;;;4936528;28;20043;-82
2022/12/31 08:38:13;;;;;;;4.55;2.38;;;12.20;78.30;;;;;;4936036;29;20047;-82
2022/12/31 08:40:47;;;;;;;4.18;2.55;;;12.20;78.10;;;;;;4928323;29;20131;-83
2022/12/31 08:43:52;;;;;;;3.60;2.47;;;12.20;78.10;;;;;;4959141;28;20072;-83
2022/12/31 08:46:30;;;;;;;4.13;2.70;;;12.20;78.00;;;;;;4994021;28;20045;-81
2022/12/31 08:48:56;;;;;;;4.82;2.97;;;12.20;78.20;;;;;;5023362;28;20069;-80
2022/12/31 08:51:25;;;;;;;3.95;2.80;;;12.20;78.10;;;;;;5035558;28;20511;-80
2022/12/31 08:53:52;;;;;;;5.32;2.70;;;12.20;78.10;;;;;;5021969;28;20040;-83
2022/12/31 08:56:39;;;;;;;5.38;2.88;;;12.20;77.90;;;;;;5055822;28;20085;-83
2022/12/31 08:59:05;;;;;;;4.68;2.65;;;12.20;77.90;;;;;;5051822;28;20037;-80
2022/12/31 09:02:00;;;;;;;4.45;2.85;;;12.20;77.80;;;;;;5041499;28;20047;-80
2022/12/31 09:04:51;;;;;;;4.50;2.13;;;12.20;77.80;;;;;;5038217;28;20403;-79
2022/12/31 09:07:22;;;;;;;5.50;2.80;;;12.20;77.80;;;;;;5044322;28;20036;-84
2022/12/31 09:10:18;;;;;;;3.45;2.63;;;12.20;78.00;;;;;;5042735;28;20407;-84
2022/12/31 09:13:08;;;;;;;4.25;2.45;;;12.20;78.10;;;;;;5027102;28;20038;-81
2022/12/31 09:15:57;;;;;;;3.45;2.22;;;12.30;78.50;;;;;;5045394;28;20034;-83
2022/12/31 09:18:23;;;;;;;5.05;2.60;;;12.30;78.50;;;;;;5026569;28;20133;-77
2022/12/31 09:20:49;;;;;;;2.92;2.10;;;12.20;78.30;;;;;;5032879;28;20037;-75
2022/12/31 09:23:16;;;;;;;7.40;2.50;;;12.30;78.40;;;;;;5042286;28;20451;-77
2022/12/31 09:26:25;;;;;;;4.65;2.70;;;12.30;78.40;;;;;;5035732;28;20076;-75
2022/12/31 09:29:09;;;;;;;4.00;2.50;;;12.30;78.70;;;;;;4967259;28;20062;-74
2022/12/31 09:32:05;;;;;;;4.85;2.90;;;12.30;80.50;;;;;;4959002;28;20041;-74
2022/12/31 09:34:48;;;;;;;4.53;2.58;;;12.40;80.60;;;;;;4962915;28;20131;-74
2022/12/31 09:37:34;;;;;;;4.25;2.47;;;12.40;82.20;;;;;;4962191;28;20182;-73
2022/12/31 09:40:26;;;;;;;5.15;3.20;;;12.50;81.30;;;;;;4964041;28;20035;-74
2022/12/31 09:43:44;;;;;;;6.25;2.50;;;12.60;81.10;;;;;;4947610;28;20130;-73
2022/12/31 09:46:37;;;;;;;5.65;2.70;;;12.60;81.30;;;;;;4919562;28;20050;-73
2022/12/31 09:49:33;;;;;;;4.07;2.88;;;12.60;81.00;;;;;;4953398;28;20386;-74
2022/12/31 09:52:19;;;;;;;5.53;3.53;;;12.70;81.00;;;;;;4953387;28;20035;-72
2022/12/31 09:54:45;;;;;;;4.47;3.28;;;12.70;81.30;;;;;;4953352;28;20628;-73
2022/12/31 09:57:36;;;;;;;6.20;4.20;;;12.70;81.40;;;;;;4954806;28;20070;-74
2022/12/31 10:00:22;;;;;;;6.80;3.75;;;12.80;80.60;;;;;;4947502;28;20395;-72
2022/12/31 10:03:24;;;;;;;7.07;3.65;;;12.90;80.10;;;;;;4961237;28;20558;-74
2022/12/31 10:06:24;;;;;;;5.63;3.85;;;12.90;80.10;;;;;;5006498;28;20041;-73
2022/12/31 10:09:28;;;;;;;6.18;3.88;;;13.00;79.30;;;;;;5045006;28;20135;-74
2022/12/31 10:12:31;;;;;;;5.78;3.40;;;13.00;78.90;;;;;;5072839;28;20037;-75
2022/12/31 10:15:16;;;;;;;6.38;3.90;;;13.10;78.70;;;;;;5046360;28;20459;-80
2022/12/31 10:18:02;;;;;;;4.75;3.50;;;13.10;78.40;;;;;;5040541;28;20033;-75
2022/12/31 10:20:54;;;;;;;6.90;3.28;;;13.10;79.20;;;;;;5007168;28;20038;-75
2022/12/31 10:23:44;;;;;;;6.78;3.03;;;13.10;78.90;;;;;;5036702;28;20077;-74
2022/12/31 10:26:31;;;;;;;4.80;3.05;;;13.20;78.30;;;;;;5036720;28;20041;-74
2022/12/31 10:29:39;;;;;;;8.27;3.40;;;13.20;77.70;;;;;;5036673;28;20463;-73
2022/12/31 10:32:17;;;;;;;5.40;3.53;;;13.20;77.40;;;;;;5050898;28;20999;-74
2022/12/31 10:35:38;;;;;;;6.13;3.20;;;13.20;76.90;;;;;;5004307;28;20087;-72
2022/12/31 10:38:11;;;;;;;10.73;3.75;;;13.10;76.80;;;;;;5007344;28;20041;-73
2022/12/31 10:41:07;;;;;;;6.20;2.97;;;13.20;76.60;;;;;;5020792;28;20045;-73
2022/12/31 10:43:51;;;;;;;7.70;3.33;;;13.10;76.60;;;;;;5007509;28;20069;-75
2022/12/31 10:46:34;;;;;;;5.90;3.92;;;13.10;76.60;;;;;;5016585;28;20421;-81
2022/12/31 10:49:52;;;;;;;7.65;3.38;;;13.10;76.60;;;;;;5021074;28;20065;-76
2022/12/31 10:53:06;;;;;;;12.15;3.20;;;13.10;76.60;;;;;;5020711;28;20100;-78
2022/12/31 10:55:54;;;;;;;5.65;3.67;;;13.10;76.60;;;;;;4996598;28;20087;-80
2022/12/31 10:58:36;;;;;;;4.72;3.10;;;13.10;76.60;;;;;;5019932;28;20091;-78
2022/12/31 11:01:22;;;;;;;6.10;3.42;;;13.00;76.60;;;;;;5030297;28;20448;-79
2022/12/31 11:04:06;;;;;;;;;;;13.00;76.70;;;;;;5021348;28;20050;-73
2022/12/31 11:07:09;;;;;;;6.38;3.10;;;13.00;76.80;;;;;;5040343;28;19991;-76
2022/12/31 11:10:13;;;;;;;6.18;2.80;;;13.00;77.00;;;;;;5052364;28;20036;-82
2022/12/31 11:13:06;;;;;;;4.95;3.00;;;13.00;77.20;;;;;;5022021;28;20120;-85
2022/12/31 11:16:11;;;;;;;4.47;2.72;;;13.00;77.20;;;;;;5020634;28;20029;-84
2022/12/31 11:19:06;;;;;;;5.57;2.78;;;13.00;77.30;;;;;;5033920;28;20414;-80
2022/12/31 11:22:08;;;;;;;4.40;2.83;;;12.90;77.20;;;;;;5007829;28;20072;-81
2022/12/31 11:25:18;;;;;;;3.70;2.95;;;12.90;77.30;;;;;;5036458;28;20049;-83
2022/12/31 11:27:52;;;;;;;4.70;2.72;;;12.90;77.30;;;;;;5015844;28;20061;-81
2022/12/31 11:30:22;;;;;;;5.38;2.60;;;12.90;77.40;;;;;;5033024;28;20061;-86
2022/12/31 11:32:51;;;;;;;4.13;2.60;;;12.90;77.60;;;;;;5052326;28;20049;-80
2022/12/31 11:35:40;;;;;;;3.70;2.58;;;12.80;77.80;;;;;;5033750;28;20129;-82
2022/12/31 11:38:06;;;;;;;4.07;2.63;;;12.90;77.90;;;;;;5024520;28;20037;-80
2022/12/31 11:40:56;;;;;;;4.97;2.67;;;12.90;78.00;;;;;;5036769;28;20140;-84
2022/12/31 11:43:40;;;;;;;5.38;2.72;;;12.80;78.00;;;;;;5053735;28;20033;-83
2022/12/31 11:46:22;;;;;;;3.83;2.38;;;12.80;77.90;;;;;;5036336;28;20086;-78
2022/12/31 11:49:03;;;;;;;6.90;2.50;;;12.80;78.00;;;;;;5016571;28;20378;-84
2022/12/31 11:51:50;;;;;;;4.30;2.50;;;12.80;77.80;;;;;;5030400;28;20041;-83
2022/12/31 11:54:45;;;;;;;5.32;2.00;;;12.80;78.10;;;;;;5017328;28;20037;-87
2022/12/31 11:57:17;;;;;;;6.32;2.42;;;12.80;78.30;;;;;;5049572;28;20049;-86
2022/12/31 11:59:43;;;;;;;7.75;2.53;;;12.80;78.60;;;;;;5000397;28;20182;-88
2022/12/31 12:02:20;;;;;;;4.40;2.20;;;12.80;78.50;;;;;;5016086;28;20068;-87
2022/12/31 12:04:48;;;;;;;6.43;2.22;;;12.80;78.40;;;;;;5037436;28;20068;-83
2022/12/31 12:07:16;;;;;;;5.63;2.30;;;12.80;78.30;;;;;;5029909;28;20408;-77
2022/12/31 12:09:44;;;;;;;6.32;2.78;;;12.70;78.10;;;;;;5035736;28;20021;-85
2022/12/31 12:12:11;;;;;;;6.20;2.30;;;12.70;78.10;;;;;;5040575;28;20033;-84
2022/12/31 12:14:44;;;;;;;4.70;2.55;;;12.70;78.10;;;;;;5035676;28;20216;-79
2022/12/31 12:17:16;;;;;;;5.40;2.45;;;12.80;78.00;;;;;;5061088;28;20036;-81
2022/12/31 12:19:52;;;;;;;3.72;2.55;;;12.70;77.90;;;;;;5047905;28;20063;-80
2022/12/31 12:22:25;;;;;;;;;;;12.70;77.80;;;;;;5053481;28;20049;-81
2022/12/31 12:24:52;;;;;;;5.80;2.80;;;12.70;77.70;;;;;;5040231;28;20271;-83
2022/12/31 12:27:30;;;;;;;7.45;3.35;;;12.70;77.70;;;;;;5034109;28;20045;-82
2022/12/31 12:29:55;;;;;;;3.90;2.35;;;12.70;78.00;;;;;;5035616;28;20211;-83
2022/12/31 12:32:24;;;;;;;7.53;2.67;;;12.70;78.00;;;;;;5023242;28;20033;-79
2022/12/31 12:34:52;;;;;;;5.60;2.95;;;12.70;78.70;;;;;;5040928;28;20311;-78
2022/12/31 12:37:24;;;;;;;4.25;2.70;;;12.70;79.60;;;;;;5035449;28;20496;-78
2022/12/31 12:40:10;;;;;;;9.10;3.17;;;12.70;81.90;;;;;;5035798;28;20029;-76
2022/12/31 12:42:49;;;;;;;6.30;2.95;;;12.70;84.50;;;;;;5037312;28;20061;-76
2022/12/31 12:45:22;;;;;;;7.30;3.42;;;12.70;86.10;;;;;;5067010;28;20445;-76
2022/12/31 12:47:53;;;;;;;6.43;3.28;;;12.70;85.60;;;;;;5019975;28;20041;-76
2022/12/31 12:50:36;;;;;;;5.35;3.80;;;12.80;86.60;;;;;;5065278;28;20128;-75
2022/12/31 12:53:19;;;;;;;12.75;4.18;;;12.80;86.30;;;;;;5035205;28;20040;-78
2022/12/31 12:56:06;;;;;;;9.48;3.80;;;12.90;86.40;;;;;;5022676;28;20065;-79
2022/12/31 12:58:51;;;;;;;5.15;3.50;;;12.90;86.90;;;;;;5017890;28;20033;-78
2022/12/31 13:01:17;;;;;;;6.65;3.63;;;12.90;86.10;;;;;;5035546;28;20036;-77
2022/12/31 13:04:14;;;;;;;7.25;3.35;;;12.90;85.50;;;;;;5018370;28;20033;-74
2022/12/31 13:06:49;;;;;;;5.65;3.45;;;12.90;84.50;;;;;;5034664;28;20056;-75
2022/12/31 13:09:29;;;;;;;5.30;3.90;;;12.90;81.50;;;;;;5048020;28;20033;-83
2022/12/31 13:12:04;;;;;;;4.85;3.75;;;12.80;75.90;;;;;;5043296;28;20172;-89
2022/12/31 13:14:50;;;;;;;5.30;3.88;;;12.60;72.40;;;;;;5076843;28;20057;-83
2022/12/31 13:18:03;;;;;;;5.97;3.78;;;12.50;70.90;;;;;;5042988;28;20036;-83
2022/12/31 13:20:39;;;;;;;5.30;3.72;;;12.30;70.70;;;;;;5077640;28;20029;-81
2022/12/31 13:23:30;;;;;;;5.85;4.38;;;12.10;70.00;;;;;;5033258;28;20040;-83
2022/12/31 13:26:14;;;;;;;5.60;4.25;;;11.90;69.50;;;;;;5041220;28;20065;-85
2022/12/31 13:28:42;;;;;;;5.75;4.22;;;11.80;69.20;;;;;;5048714;28;20029;-82
2022/12/31 13:31:13;;;;;;;5.22;3.45;;;11.60;69.10;;;;;;5023333;28;20040;-72
2022/12/31 13:33:54;;;;;;;4.78;3.42;;;11.60;75.10;;;;;;5043960;28;20033;-92
2022/12/31 13:36:24;;;;;;;4.30;3.40;;;11.60;77.20;;;;;;5015597;28;20053;-82